Vandalia, Michigan
Current Conditions -  °F | °C
As of 1:15 AM on Saturday 29 Nov 2014 (Local Time) from KHAI Reporting Station
Scattered Clouds Scattered Clouds  
Wind Chill: 25°   Ceiling: Unl
Heat Index: 32°   Visibility: 10mi
Dew Point: 24°   Wind: 7mph
Humidity: 73%   Direction: 170°S
Pressure: 29.97"   Gusts: NA
Location:  41.92°N, 85.91°W
Report Text: KHAI 290615Z AUTO 17006KT 10SM SCT120 00/M05 A2997 RMK AO2 T10021046
Loading
Personal Weather Stations






























Interactive Weather Map New forecast layout! Learn more

10-Day Weather Forecast

Advertisements
Track Severe Weather on mobile